Flight Track Log - Related Links

Times and Time Zones

All times are in EDT time to prevent confusion due to time zone crossing. See the CSN6088 flight status page for this flight to view local times or setup timezone preferences in your user account.

Time Position Orientation Groundspeed Altitude Reporting Facility
EDT Latitude Longitude Course Direction KTS MPH feet Rate Location/Type
Tue 12:12:00 AM 37.5318 126.4754 17° North  Level Estimated
Tue 12:13:00 AM 37.5946 126.5003 17° North  Level Estimated
Tue 12:14:00 AM 37.6573 126.5252 17° North  Level Estimated
Tue 12:15:00 AM 37.7200 126.5502 17° North  Level Estimated
Tue 12:16:00 AM 37.7827 126.5752 18° North  Level Estimated
Tue 12:17:00 AM 37.8454 126.6003 18° North  Level Estimated
Tue 12:18:00 AM 37.9081 126.6254 18° North  Level Estimated
Tue 12:19:00 AM 37.9708 126.6505 18° North  Level Estimated
Tue 12:20:00 AM 38.0330 126.6755 18° North  Level Estimated
Tue 12:21:00 AM 38.0951 126.7005 18° North  Level Estimated
Tue 12:22:00 AM 38.1572 126.7256 18° North  Level Estimated
Tue 12:23:00 AM 38.2194 126.7507 18° North  Level Estimated
Tue 12:24:00 AM 38.2815 126.7758 18° North  Level Estimated
Tue 12:25:00 AM 38.3436 126.8010 18° North  Level Estimated
Tue 12:26:00 AM 38.4057 126.8262 18° North  Level Estimated
Tue 12:27:00 AM 38.4678 126.8515 18° North  Level Estimated
Tue 12:28:00 AM 38.5299 126.8768 18° North  Level Estimated
Tue 12:29:00 AM 38.5920 126.9022 18° North  Level Estimated
Tue 12:30:00 AM 38.6541 126.9276 18° North  Level Estimated
Tue 12:31:00 AM 38.7162 126.9530 18° North  Level Estimated
Tue 12:32:00 AM 38.7783 126.9785 18° North  Level Estimated
Tue 12:33:00 AM 38.8404 127.0041 18° North  Level Estimated
Tue 12:34:00 AM 38.9025 127.0296 18° North  Level Estimated
Tue 12:35:00 AM 38.9645 127.0553 18° North  Level Estimated
Tue 12:36:00 AM 39.0266 127.0809 18° North  Level Estimated
Tue 12:37:00 AM 39.0886 127.1066 18° North  Level Estimated
Tue 12:38:00 AM 39.1507 127.1324 18° North  Level Estimated
Tue 12:39:00 AM 39.2127 127.1582 18° North  Level Estimated
Tue 12:40:00 AM 39.2747 127.1841 18° North  Level Estimated
Tue 12:41:00 AM 39.3368 127.2100 18° North  Level Estimated
Tue 12:42:00 AM 39.3988 127.2359 18° North  Level Estimated
Tue 12:43:00 AM 39.4608 127.2619 18° North  Level Estimated
Tue 12:44:00 AM 39.5228 127.2879 18° North  Level Estimated
Tue 12:45:00 AM 39.5848 127.3140 18° North  Level Estimated
Tue 12:46:00 AM 39.6468 127.3401 18° North  Level Estimated
Tue 12:47:00 AM 39.7088 127.3663 18° North  Level Estimated
Tue 12:48:00 AM 39.7708 127.3925 18° North  Level Estimated
Tue 12:49:00 AM 39.8328 127.4188 18° North  Level Estimated
Tue 12:50:00 AM 39.8948 127.4451 18° North  Level Estimated
Tue 12:51:00 AM 39.9567 127.4715 18° North  Level Estimated
Tue 12:52:00 AM 40.0187 127.4979 18° North  Level Estimated
Tue 12:53:00 AM 40.0807 127.5244 18° North  Level Estimated
Tue 12:54:00 AM 40.1426 127.5509 18° North  Level Estimated
Tue 12:55:00 AM 40.2046 127.5774 18° North  Level Estimated
Tue 12:56:00 AM 40.2665 127.6040 18° North  Level Estimated
Tue 12:57:00 AM 40.3285 127.6307 18° North  Level Estimated
Tue 12:58:00 AM 40.3904 127.6574 18° North  Level Estimated
Tue 12:59:00 AM 40.4523 127.6842 18° North  Level Estimated
Tue 01:00:00 AM 40.5142 127.7110 18° North  Level Estimated
Tue 01:01:00 AM 40.5761 127.7378 18° North  Level Estimated
Tue 01:02:00 AM 40.6380 127.7647 18° North  Level Estimated
Tue 01:03:00 AM 40.6999 127.7917 18° North  Level Estimated
Tue 01:04:00 AM 40.7618 127.8187 18° North  Level Estimated
Tue 01:05:00 AM 40.8237 127.8457 18° North  Level Estimated
Tue 01:06:00 AM 40.8856 127.8728 18° North  Level Estimated
Tue 01:07:00 AM 40.9475 127.9000 18° North  Level Estimated
Tue 01:08:00 AM 41.0093 127.9272 18° North  Level Estimated
Tue 01:09:00 AM 41.0712 127.9544 18° North  Level Estimated
Tue 01:10:00 AM 41.1330 127.9818 18° North  Level Estimated
Tue 01:11:00 AM 41.1949 128.0091 18° North  Level Estimated
Tue 01:12:00 AM 41.2567 128.0365 18° North  Level Estimated
Tue 01:13:00 AM 41.3186 128.0640 18° North  Level Estimated
Tue 01:14:00 AM 41.3804 128.0915 18° North  Level Estimated
Tue 01:15:00 AM 41.4422 128.1191 18° North  Level Estimated
Tue 01:16:00 AM 41.5040 128.1467 19° North  Level Estimated
Tue 01:17:00 AM 41.5658 128.1743 19° North  Level Estimated
Tue 01:18:00 AM 41.6276 128.2021 19° North  Level Estimated
Tue 01:19:00 AM 41.6894 128.2299 19° North  Level Estimated
Tue 01:20:00 AM 41.7512 128.2577 19° North  Level Estimated
Tue 01:21:00 AM 41.8130 128.2856 19° North  Level Estimated
Tue 01:22:00 AM 41.8748 128.3135 19° North  Level Estimated
Tue 01:23:00 AM 41.9365 128.3415 19° North  Level Estimated
Tue 01:24:00 AM 41.9983 128.3696 19° North  Level Estimated
Tue 01:25:00 AM 42.0601 128.3977 19° North  Level Estimated
Tue 01:26:00 AM 42.1218 128.4258 19° North  Level Estimated
Tue 01:27:00 AM 42.1835 128.4540 19° North  Level Estimated
Tue 01:28:00 AM 42.2453 128.4823 19° North  Level Estimated
Tue 01:29:00 AM 42.3070 128.5106 19° North  Level Estimated
Tue 01:30:00 AM 42.3687 128.5390 19° North  Level Estimated
Tue 01:31:00 AM 42.4304 128.5674 19° North  Level Estimated
Tue 01:32:00 AM 42.4921 128.5959 19° North  Level Estimated
Tue 01:33:00 AM 42.5538 128.6245 19° North  Level Estimated
Tue 01:34:00 AM 42.6155 128.6531 19° North  Level Estimated
Tue 01:35:00 AM 42.6772 128.6817 19° North  Level Estimated
Tue 01:36:00 AM 42.7389 128.7104 19° North  Level Estimated
Tue 01:37:00 AM 42.8006 128.7392 19° North  Level Estimated
Tue 01:38:00 AM 42.8622 128.7681 19° North  Level Estimated
Tue 01:39:00 AM 42.9239 128.7969 19° North  Level Estimated
Tue 01:40:00 AM 42.9855 128.8259 19° North  Level Estimated
Tue 01:41:00 AM 43.0472 128.8549 19° North  Level Estimated
Tue 01:42:00 AM 43.1088 128.8840 19° North  Level Estimated
Tue 01:43:00 AM 43.1704 128.9131 19° North  Level Estimated
Tue 01:44:00 AM 43.2320 128.9422 19° North  Level Estimated
Tue 01:45:00 AM 43.2937 128.9715 19° North  Level Estimated
Tue 01:46:00 AM 43.3553 129.0008 19° North  Level Estimated
Tue 01:47:00 AM 43.4169 129.0302 19° North  Level Estimated
Tue 01:48:00 AM 43.4784 129.0596 19° North  Level Estimated
Tue 01:49:00 AM 43.5400 129.0891 19° North  Level Estimated
Tue 01:50:00 AM 43.6016 129.1186 19° North  Level Estimated
Tue 01:51:00 AM 43.6632 129.1482 19° North  Level Estimated
Tue 01:52:00 AM 43.7247 129.1778 19° North  Level Estimated
Tue 01:53:00 AM 43.7863 129.2076 19° North  Level Estimated
Tue 01:54:00 AM 43.8478 129.2373 19° North  Level Estimated
Tue 01:55:00 AM 43.9093 129.2672 19° North  Level Estimated
Tue 01:56:00 AM 43.9709 129.2971 19° North  Level Estimated
Tue 01:57:00 AM 44.0324 129.3271 19° North  Level Estimated
Tue 01:58:00 AM 44.0939 129.3571 19° North  Level Estimated
Tue 01:59:00 AM 44.1554 129.3872 19° North  Level Estimated
Tue 02:00:00 AM 44.2169 129.4173 19° North  Level Estimated
Tue 02:01:00 AM 44.2784 129.4476 19° North  Level Estimated
Tue 02:02:00 AM 44.3399 129.4778 19° North  Level Estimated
Tue 02:03:00 AM 44.4013 129.5082 19° North  Level Estimated
Tue 02:04:00 AM 44.4628 129.5386 19° North  Level Estimated
Tue 02:05:00 AM 44.5241 129.5690 19° North  Level Estimated
Tue 02:06:00 AM 44.5241 129.5690 North  Level Estimated
Tue 02:07:00 AM 44.5241 129.5690 North  Level Estimated
Tue 02:08:00 AM 44.5241 129.5690 North  Level Estimated
Tue 02:09:00 AM 44.5241 129.5690 North  Level Estimated
Tue 02:10:00 AM 44.5241 129.5690 North  Level Estimated
Tue 02:11:00 AM 44.5241 129.5690 North  Level Estimated
Tue 02:12:00 AM 44.5241 129.5690 North  Level Estimated

Login

Don't have an account? Register now (free) for customized features, flight alerts, and more!